Terminal Aerodrome Forecast
Issued by NWS

Current Version | Previous Version | Text Only | Print | Product List | Glossary On
Versions: 1 2 3 4 5 6 7 8 9 10 11 12 13 14 15
000
FTUS44 KBMX 190520
TAFTCL
TAF
KTCL 190520Z 1906/2006 00000KT P6SM SKC
     FM190700 00000KT 6SM BR SKC
      TEMPO 1910/1913 4SM BR
     FM191400 30005KT P6SM SKC=

USA.gov is the U.S. government's official web portal to all federal, state and local government web resources and services.